sensor_id;sensor_type;location;lat;lon;timestamp;pressure;altitude;pressure_sealevel;temperature;humidity
1652;BME280;823;49.028;8.454;2022-11-20T00:00:16;99999.28;;;8.47;64.95
1652;BME280;823;49.028;8.454;2022-11-20T00:05:17;100003.50;;;8.49;64.78
1652;BME280;823;49.028;8.454;2022-11-20T00:10:18;100008.72;;;8.48;65.21
1652;BME280;823;49.028;8.454;2022-11-20T00:15:18;100006.13;;;8.48;65.71
1652;BME280;823;49.028;8.454;2022-11-20T00:20:18;100003.50;;;8.49;65.38
1652;BME280;823;49.028;8.454;2022-11-20T00:25:19;100012.88;;;8.52;65.16
1652;BME280;823;49.028;8.454;2022-11-20T00:30:19;100015.47;;;8.52;65.08
1652;BME280;823;49.028;8.454;2022-11-20T00:35:19;100013.63;;;8.56;65.23
1652;BME280;823;49.028;8.454;2022-11-20T00:40:20;100019.44;;;8.62;65.44
1652;BME280;823;49.028;8.454;2022-11-20T00:45:20;100012.56;;;8.63;65.58
1652;BME280;823;49.028;8.454;2022-11-20T00:50:20;100007.25;;;8.67;65.47
1652;BME280;823;49.028;8.454;2022-11-20T00:55:21;100012.28;;;8.71;65.23
1652;BME280;823;49.028;8.454;2022-11-20T01:00:21;100006.31;;;8.70;65.28
1652;BME280;823;49.028;8.454;2022-11-20T01:05:21;99994.84;;;8.79;65.21
1652;BME280;823;49.028;8.454;2022-11-20T01:10:22;100005.91;;;8.82;65.13
1652;BME280;823;49.028;8.454;2022-11-20T01:15:22;100004.13;;;8.84;65.38
1652;BME280;823;49.028;8.454;2022-11-20T01:20:22;99999.84;;;8.85;65.33
1652;BME280;823;49.028;8.454;2022-11-20T01:25:22;100004.13;;;8.84;65.44
1652;BME280;823;49.028;8.454;2022-11-20T01:30:23;99999.84;;;8.85;65.44
1652;BME280;823;49.028;8.454;2022-11-20T01:35:23;100000.25;;;8.98;64.98
1652;BME280;823;49.028;8.454;2022-11-20T01:40:23;99999.31;;;9.00;65.43
1652;BME280;823;49.028;8.454;2022-11-20T01:46:00;99988.72;;;9.10;65.17
1652;BME280;823;49.028;8.454;2022-11-20T01:51:02;99989.53;;;9.10;65.49
1652;BME280;823;49.028;8.454;2022-11-20T01:56:08;99982.38;;;9.18;65.64
1652;BME280;823;49.028;8.454;2022-11-20T02:01:10;99978.53;;;9.30;65.86
1652;BME280;823;49.028;8.454;2022-11-20T02:06:22;99977.41;;;9.39;65.88
1652;BME280;823;49.028;8.454;2022-11-20T02:11:23;99980.50;;;9.49;66.13
1652;BME280;823;49.028;8.454;2022-11-20T02:16:29;99984.38;;;9.61;66.36
1652;BME280;823;49.028;8.454;2022-11-20T02:21:40;99983.66;;;9.57;66.50
1652;BME280;823;49.028;8.454;2022-11-20T02:31:49;99972.31;;;9.61;66.65
1652;BME280;823;49.028;8.454;2022-11-20T02:36:51;99972.91;;;9.44;67.40
1652;BME280;823;49.028;8.454;2022-11-20T02:41:55;99972.19;;;9.64;66.93
1652;BME280;823;49.028;8.454;2022-11-20T02:46:59;99969.28;;;9.74;67.07
1652;BME280;823;49.028;8.454;2022-11-20T02:52:00;99965.69;;;9.78;67.15
1652;BME280;823;49.028;8.454;2022-11-20T02:57:00;99961.50;;;9.75;67.40
1652;BME280;823;49.028;8.454;2022-11-20T03:02:01;99967.84;;;9.90;67.05
1652;BME280;823;49.028;8.454;2022-11-20T03:07:02;99967.78;;;9.92;67.02
1652;BME280;823;49.028;8.454;2022-11-20T03:12:03;99962.66;;;9.90;66.96
1652;BME280;823;49.028;8.454;2022-11-20T03:17:04;99965.19;;;9.92;66.70
1652;BME280;823;49.028;8.454;2022-11-20T03:22:04;99966.16;;;9.89;66.70
1652;BME280;823;49.028;8.454;2022-11-20T03:27:05;99959.97;;;9.93;66.40
1652;BME280;823;49.028;8.454;2022-11-20T03:32:05;99951.31;;;9.94;66.79
1652;BME280;823;49.028;8.454;2022-11-20T03:37:06;99957.78;;;9.82;66.23
1652;BME280;823;49.028;8.454;2022-11-20T03:42:06;99958.94;;;9.97;65.79
1652;BME280;823;49.028;8.454;2022-11-20T03:47:26;99957.50;;;9.90;65.86
1652;BME280;823;49.028;8.454;2022-11-20T03:52:26;99954.19;;;9.86;65.92
1652;BME280;823;49.028;8.454;2022-11-20T03:57:27;99949.13;;;9.83;65.60
1652;BME280;823;49.028;8.454;2022-11-20T04:02:27;99953.63;;;9.78;65.35
1652;BME280;823;49.028;8.454;2022-11-20T04:07:27;99951.41;;;9.91;65.18
1652;BME280;823;49.028;8.454;2022-11-20T04:12:31;99949.63;;;9.93;65.38
1652;BME280;823;49.028;8.454;2022-11-20T04:17:32;99956.06;;;10.05;64.77
1652;BME280;823;49.028;8.454;2022-11-20T04:22:32;99952.66;;;10.04;64.31
1652;BME280;823;49.028;8.454;2022-11-20T04:27:32;99952.44;;;10.11;64.58
1652;BME280;823;49.028;8.454;2022-11-20T04:32:33;99945.44;;;10.13;64.32
1652;BME280;823;49.028;8.454;2022-11-20T04:37:33;99939.91;;;10.00;64.25
1652;BME280;823;49.028;8.454;2022-11-20T04:42:33;99939.91;;;10.00;64.13
1652;BME280;823;49.028;8.454;2022-11-20T04:47:34;99944.00;;;10.05;64.01
1652;BME280;823;49.028;8.454;2022-11-20T04:52:34;99943.69;;;10.13;63.77
1652;BME280;823;49.028;8.454;2022-11-20T04:57:34;99948.44;;;10.02;63.93
1652;BME280;823;49.028;8.454;2022-11-20T05:02:35;99950.56;;;10.14;63.71
1652;BME280;823;49.028;8.454;2022-11-20T05:07:35;99938.53;;;10.13;63.60
1652;BME280;823;49.028;8.454;2022-11-20T05:12:35;99938.06;;;10.26;63.07
1652;BME280;823;49.028;8.454;2022-11-20T05:17:36;99937.03;;;10.30;62.87
1652;BME280;823;49.028;8.454;2022-11-20T05:22:36;99929.16;;;10.34;62.94
1652;BME280;823;49.028;8.454;2022-11-20T05:27:36;99936.78;;;10.37;62.73
1652;BME280;823;49.028;8.454;2022-11-20T05:32:37;99932.06;;;10.25;62.93
1652;BME280;823;49.028;8.454;2022-11-20T05:37:37;99932.13;;;10.23;63.28
1652;BME280;823;49.028;8.454;2022-11-20T05:42:37;99934.03;;;10.18;62.87
1652;BME280;823;49.028;8.454;2022-11-20T05:47:38;99924.50;;;10.20;62.83
1652;BME280;823;49.028;8.454;2022-11-20T05:52:38;99919.34;;;10.19;62.68
1652;BME280;823;49.028;8.454;2022-11-20T05:57:39;99924.66;;;10.16;62.74
1652;BME280;823;49.028;8.454;2022-11-20T06:02:39;99927.91;;;10.21;62.51
1652;BME280;823;49.028;8.454;2022-11-20T06:07:39;99917.22;;;10.30;62.44
1652;BME280;823;49.028;8.454;2022-11-20T06:12:39;99923.63;;;10.20;62.57
1652;BME280;823;49.028;8.454;2022-11-20T06:17:40;99926.06;;;10.25;62.39
1652;BME280;823;49.028;8.454;2022-11-20T06:22:40;99929.19;;;10.11;62.86
1652;BME280;823;49.028;8.454;2022-11-20T06:27:40;99930.38;;;10.24;62.20
1652;BME280;823;49.028;8.454;2022-11-20T06:32:41;99920.97;;;10.21;62.10
1652;BME280;823;49.028;8.454;2022-11-20T06:37:42;99934.13;;;9.93;62.35
1652;BME280;823;49.028;8.454;2022-11-20T06:42:42;99930.19;;;10.07;62.25
1652;BME280;823;49.028;8.454;2022-11-20T06:47:42;99941.44;;;10.28;61.83
1652;BME280;823;49.028;8.454;2022-11-20T06:52:42;99939.44;;;10.12;62.23
1652;BME280;823;49.028;8.454;2022-11-20T06:57:43;99941.59;;;10.23;61.76
1652;BME280;823;49.028;8.454;2022-11-20T07:02:43;99948.75;;;10.40;61.32
1652;BME280;823;49.028;8.454;2022-11-20T07:07:44;99956.25;;;10.00;62.55
1652;BME280;823;49.028;8.454;2022-11-20T07:12:49;99951.38;;;10.15;62.31
1652;BME280;823;49.028;8.454;2022-11-20T07:17:51;99956.94;;;10.28;62.23
1652;BME280;823;49.028;8.454;2022-11-20T07:22:55;99967.94;;;10.11;62.88
1652;BME280;823;49.028;8.454;2022-11-20T07:27:57;99963.69;;;10.32;62.39
1652;BME280;823;49.028;8.454;2022-11-20T07:32:58;99973.03;;;10.36;62.64
1652;BME280;823;49.028;8.454;2022-11-20T07:37:58;99972.72;;;10.44;62.63
1652;BME280;823;49.028;8.454;2022-11-20T07:42:59;99979.31;;;10.29;63.25
1652;BME280;823;49.028;8.454;2022-11-20T07:47:59;99977.91;;;10.20;63.63
1652;BME280;823;49.028;8.454;2022-11-20T07:53:02;99970.75;;;10.27;63.49
1652;BME280;823;49.028;8.454;2022-11-20T07:58:03;99974.56;;;10.18;63.65
1652;BME280;823;49.028;8.454;2022-11-20T08:03:04;99983.06;;;10.20;63.98
1652;BME280;823;49.028;8.454;2022-11-20T08:08:04;99992.72;;;10.15;64.90
1652;BME280;823;49.028;8.454;2022-11-20T08:13:05;100004.00;;;9.90;65.47
1652;BME280;823;49.028;8.454;2022-11-20T08:18:23;100005.00;;;10.10;65.51
1652;BME280;823;49.028;8.454;2022-11-20T08:23:24;100002.56;;;10.29;64.87
1652;BME280;823;49.028;8.454;2022-11-20T08:28:24;100006.47;;;10.17;65.13
1652;BME280;823;49.028;8.454;2022-11-20T08:33:25;100015.91;;;10.18;65.13
1652;BME280;823;49.028;8.454;2022-11-20T08:38:25;100016.41;;;10.04;65.47
1652;BME280;823;49.028;8.454;2022-11-20T08:43:25;100020.72;;;10.27;64.88
1652;BME280;823;49.028;8.454;2022-11-20T08:48:25;100021.69;;;10.25;65.29
1652;BME280;823;49.028;8.454;2022-11-20T08:53:27;100022.22;;;10.09;65.25
1652;BME280;823;49.028;8.454;2022-11-20T08:58:27;100033.53;;;10.30;64.89
1652;BME280;823;49.028;8.454;2022-11-20T09:03:28;100027.34;;;10.58;64.26
1652;BME280;823;49.028;8.454;2022-11-20T09:08:28;100036.28;;;10.49;64.37
1652;BME280;823;49.028;8.454;2022-11-20T09:13:29;100049.03;;;10.54;64.43
1652;BME280;823;49.028;8.454;2022-11-20T09:18:30;100048.72;;;10.62;63.88
1652;BME280;823;49.028;8.454;2022-11-20T09:23:34;100050.38;;;10.64;64.45
1652;BME280;823;49.028;8.454;2022-11-20T09:28:35;100055.06;;;10.54;64.49
1652;BME280;823;49.028;8.454;2022-11-20T09:33:36;100051.38;;;10.60;65.21
1652;BME280;823;49.028;8.454;2022-11-20T09:38:36;100044.03;;;10.71;65.01
1652;BME280;823;49.028;8.454;2022-11-20T09:54:32;100060.44;;;10.72;64.81
1652;BME280;823;49.028;8.454;2022-11-20T09:59:44;100061.31;;;10.71;64.62
1652;BME280;823;49.028;8.454;2022-11-20T10:05:35;100059.09;;;10.84;64.22
1652;BME280;823;49.028;8.454;2022-11-20T10:10:45;100070.59;;;10.77;64.70
1652;BME280;823;49.028;8.454;2022-11-20T10:26:19;100057.78;;;10.96;64.95
1652;BME280;823;49.028;8.454;2022-11-20T10:31:30;100046.66;;;11.14;65.13
1652;BME280;823;49.028;8.454;2022-11-20T10:36:38;100040.91;;;11.28;65.05
1652;BME280;823;49.028;8.454;2022-11-20T10:41:41;100038.84;;;11.57;65.01
1652;BME280;823;49.028;8.454;2022-11-20T10:46:45;100041.81;;;11.48;64.57
1652;BME280;823;49.028;8.454;2022-11-20T10:52:04;100033.81;;;11.54;64.63
1652;BME280;823;49.028;8.454;2022-11-20T11:02:47;100009.91;;;12.07;62.14
1652;BME280;823;49.028;8.454;2022-11-20T11:07:50;100007.06;;;11.93;62.49
1652;BME280;823;49.028;8.454;2022-11-20T11:12:51;99999.06;;;11.99;62.20
1652;BME280;823;49.028;8.454;2022-11-20T11:17:51;99996.09;;;12.07;62.00
1652;BME280;823;49.028;8.454;2022-11-20T11:22:54;99981.91;;;12.16;61.98
1652;BME280;823;49.028;8.454;2022-11-20T11:27:58;99966.59;;;12.29;61.74
1652;BME280;823;49.028;8.454;2022-11-20T11:33:23;99954.75;;;12.42;61.09
1652;BME280;823;49.028;8.454;2022-11-20T11:38:30;99956.81;;;12.53;59.55
1652;BME280;823;49.028;8.454;2022-11-20T11:43:33;99962.09;;;12.69;58.47
1652;BME280;823;49.028;8.454;2022-11-20T11:49:17;99957.59;;;12.90;57.25
1652;BME280;823;49.028;8.454;2022-11-20T11:54:33;99939.13;;;12.78;55.75
1652;BME280;823;49.028;8.454;2022-11-20T11:59:49;99940.19;;;12.57;55.43
1652;BME280;823;49.028;8.454;2022-11-20T12:10:45;99938.63;;;12.35;55.93
1652;BME280;823;49.028;8.454;2022-11-20T12:15:47;99946.41;;;12.35;56.35
1652;BME280;823;49.028;8.454;2022-11-20T12:26:06;99919.50;;;12.38;56.30
1652;BME280;823;49.028;8.454;2022-11-20T12:36:28;99927.91;;;12.60;54.67
1652;BME280;823;49.028;8.454;2022-11-20T12:41:54;99928.84;;;12.40;52.83
1652;BME280;823;49.028;8.454;2022-11-20T12:52:50;99916.19;;;12.34;51.88
1652;BME280;823;49.028;8.454;2022-11-20T13:07:56;99912.16;;;11.90;50.23
1652;BME280;823;49.028;8.454;2022-11-20T13:13:02;99907.19;;;11.86;49.55
1652;BME280;823;49.028;8.454;2022-11-20T13:18:08;99900.63;;;11.79;49.37
1652;BME280;823;49.028;8.454;2022-11-20T13:23:10;99898.31;;;12.11;49.12
1652;BME280;823;49.028;8.454;2022-11-20T13:33:33;99880.63;;;12.19;48.95
1652;BME280;823;49.028;8.454;2022-11-20T13:38:47;99876.50;;;12.15;48.92
1652;BME280;823;49.028;8.454;2022-11-20T13:43:48;99883.19;;;12.01;47.83
1652;BME280;823;49.028;8.454;2022-11-20T13:48:49;99876.34;;;12.18;47.92
1652;BME280;823;49.028;8.454;2022-11-20T13:54:07;99869.84;;;11.90;48.21
1652;BME280;823;49.028;8.454;2022-11-20T14:04:38;99869.25;;;12.04;47.08
1652;BME280;823;49.028;8.454;2022-11-20T14:09:53;99859.09;;;11.99;47.17
1652;BME280;823;49.028;8.454;2022-11-20T14:14:54;99854.81;;;11.98;47.23
1652;BME280;823;49.028;8.454;2022-11-20T14:19:58;99843.47;;;12.01;47.30
1652;BME280;823;49.028;8.454;2022-11-20T14:25:19;99844.03;;;11.88;47.05
1652;BME280;823;49.028;8.454;2022-11-20T14:30:26;99840.13;;;11.80;48.05
1652;BME280;823;49.028;8.454;2022-11-20T14:35:34;99837.47;;;11.81;48.15
1652;BME280;823;49.028;8.454;2022-11-20T14:40:35;99825.25;;;11.83;48.11
1652;BME280;823;49.028;8.454;2022-11-20T14:45:37;99832.22;;;11.64;48.57
1652;BME280;823;49.028;8.454;2022-11-20T14:50:39;99832.84;;;11.69;48.03
1652;BME280;823;49.028;8.454;2022-11-20T14:55:40;99832.69;;;11.72;47.98
1652;BME280;823;49.028;8.454;2022-11-20T15:00:40;99817.72;;;11.79;48.05
1652;BME280;823;49.028;8.454;2022-11-20T15:05:48;99814.13;;;11.81;48.19
1652;BME280;823;49.028;8.454;2022-11-20T15:10:51;99808.88;;;11.83;48.45
1652;BME280;823;49.028;8.454;2022-11-20T15:15:56;99802.75;;;11.66;48.58
1652;BME280;823;49.028;8.454;2022-11-20T15:21:00;99799.09;;;11.70;48.43
1652;BME280;823;49.028;8.454;2022-11-20T15:26:01;99800.78;;;11.71;48.51
1652;BME280;823;49.028;8.454;2022-11-20T15:31:01;99798.22;;;11.70;48.67
1652;BME280;823;49.028;8.454;2022-11-20T15:36:03;99796.13;;;11.78;48.87
1652;BME280;823;49.028;8.454;2022-11-20T15:41:03;99789.22;;;11.79;48.32
1652;BME280;823;49.028;8.454;2022-11-20T15:46:13;99790.69;;;11.65;48.72
1652;BME280;823;49.028;8.454;2022-11-20T15:51:25;99787.34;;;11.63;48.71
1652;BME280;823;49.028;8.454;2022-11-20T15:56:27;99784.28;;;11.55;49.35
1652;BME280;823;49.028;8.454;2022-11-20T16:01:27;99784.09;;;11.77;48.71
1652;BME280;823;49.028;8.454;2022-11-20T16:06:27;99783.31;;;11.57;48.99
1652;BME280;823;49.028;8.454;2022-11-20T16:11:28;99769.00;;;11.49;49.20
1652;BME280;823;49.028;8.454;2022-11-20T16:16:31;99770.69;;;11.50;49.63
1652;BME280;823;49.028;8.454;2022-11-20T16:21:32;99767.19;;;11.51;48.92
1652;BME280;823;49.028;8.454;2022-11-20T16:26:33;99763.06;;;11.47;48.90
1652;BME280;823;49.028;8.454;2022-11-20T16:31:34;99762.69;;;11.54;48.44
1652;BME280;823;49.028;8.454;2022-11-20T16:36:34;99750.38;;;11.59;48.71
1652;BME280;823;49.028;8.454;2022-11-20T16:41:34;99747.03;;;11.57;48.76
1652;BME280;823;49.028;8.454;2022-11-20T16:46:35;99737.66;;;11.72;48.98
1652;BME280;823;49.028;8.454;2022-11-20T16:51:36;99731.31;;;11.80;47.97
1652;BME280;823;49.028;8.454;2022-11-20T16:56:37;99736.09;;;11.87;47.81
1652;BME280;823;49.028;8.454;2022-11-20T17:01:38;99738.13;;;11.81;49.25
1652;BME280;823;49.028;8.454;2022-11-20T17:06:42;99735.47;;;11.82;48.83
1652;BME280;823;49.028;8.454;2022-11-20T17:11:47;99732.56;;;11.71;48.89
1652;BME280;823;49.028;8.454;2022-11-20T17:16:47;99734.59;;;11.64;49.64
1652;BME280;823;49.028;8.454;2022-11-20T17:21:48;99723.19;;;11.51;50.46
1652;BME280;823;49.028;8.454;2022-11-20T17:26:48;99735.25;;;11.50;51.10
1652;BME280;823;49.028;8.454;2022-11-20T17:31:49;99727.47;;;11.14;52.87
1652;BME280;823;49.028;8.454;2022-11-20T17:36:50;99717.78;;;11.36;52.39
1652;BME280;823;49.028;8.454;2022-11-20T17:41:50;99706.75;;;11.33;52.84
1652;BME280;823;49.028;8.454;2022-11-20T17:47:09;99708.16;;;11.21;53.15
1652;BME280;823;49.028;8.454;2022-11-20T17:52:10;99698.59;;;11.23;53.10
1652;BME280;823;49.028;8.454;2022-11-20T17:57:10;99696.69;;;11.07;52.97
1652;BME280;823;49.028;8.454;2022-11-20T18:02:29;99693.75;;;11.15;53.53
1652;BME280;823;49.028;8.454;2022-11-20T18:07:29;99687.19;;;10.89;54.21
1652;BME280;823;49.028;8.454;2022-11-20T18:12:30;99685.25;;;10.94;54.61
1652;BME280;823;49.028;8.454;2022-11-20T18:17:30;99694.38;;;10.82;55.30
1652;BME280;823;49.028;8.454;2022-11-20T18:22:30;99702.69;;;10.51;56.27
1652;BME280;823;49.028;8.454;2022-11-20T18:27:31;99699.31;;;10.28;57.93
1652;BME280;823;49.028;8.454;2022-11-20T18:32:33;99702.75;;;10.29;57.69
1652;BME280;823;49.028;8.454;2022-11-20T18:37:33;99700.41;;;10.02;59.36
1652;BME280;823;49.028;8.454;2022-11-20T18:42:35;99687.84;;;9.94;59.85
1652;BME280;823;49.028;8.454;2022-11-20T18:47:54;99678.78;;;9.84;60.26
1652;BME280;823;49.028;8.454;2022-11-20T18:52:54;99677.94;;;10.04;60.57
1652;BME280;823;49.028;8.454;2022-11-20T18:57:55;99668.31;;;10.08;60.17
1652;BME280;823;49.028;8.454;2022-11-20T19:02:55;99663.56;;;9.98;60.42
1652;BME280;823;49.028;8.454;2022-11-20T19:07:55;99652.19;;;9.82;61.10
1652;BME280;823;49.028;8.454;2022-11-20T19:12:56;99650.63;;;9.98;60.41
1652;BME280;823;49.028;8.454;2022-11-20T19:17:57;99649.72;;;9.99;60.68
1652;BME280;823;49.028;8.454;2022-11-20T19:23:00;99647.00;;;10.02;60.48
1652;BME280;823;49.028;8.454;2022-11-20T19:28:00;99643.25;;;10.10;60.54
1652;BME280;823;49.028;8.454;2022-11-20T19:33:01;99641.00;;;9.81;61.90
1652;BME280;823;49.028;8.454;2022-11-20T19:38:01;99647.97;;;10.00;61.10
1652;BME280;823;49.028;8.454;2022-11-20T19:43:01;99649.31;;;9.67;62.54
1652;BME280;823;49.028;8.454;2022-11-20T19:48:03;99658.44;;;9.76;62.65
1652;BME280;823;49.028;8.454;2022-11-20T19:53:03;99650.03;;;9.71;63.36
1652;BME280;823;49.028;8.454;2022-11-20T19:58:03;99657.72;;;9.73;63.34
1652;BME280;823;49.028;8.454;2022-11-20T20:03:04;99660.69;;;9.84;63.36
1652;BME280;823;49.028;8.454;2022-11-20T20:08:04;99659.09;;;9.59;64.51
1652;BME280;823;49.028;8.454;2022-11-20T20:13:04;99660.75;;;9.82;64.26
1652;BME280;823;49.028;8.454;2022-11-20T20:18:05;99660.88;;;9.59;65.24
1652;BME280;823;49.028;8.454;2022-11-20T20:23:05;99658.78;;;9.46;65.51
1652;BME280;823;49.028;8.454;2022-11-20T20:28:08;99661.56;;;9.42;65.89
1652;BME280;823;49.028;8.454;2022-11-20T20:33:08;99668.22;;;9.47;65.77
1652;BME280;823;49.028;8.454;2022-11-20T20:38:09;99672.41;;;9.50;65.26
1652;BME280;823;49.028;8.454;2022-11-20T20:43:09;99673.59;;;9.41;65.75
1652;BME280;823;49.028;8.454;2022-11-20T20:48:09;99668.44;;;9.19;66.03
1652;BME280;823;49.028;8.454;2022-11-20T20:53:10;99679.50;;;9.23;66.21
1652;BME280;823;49.028;8.454;2022-11-20T20:58:10;99681.53;;;9.36;65.82
1652;BME280;823;49.028;8.454;2022-11-20T21:03:10;99685.25;;;9.29;65.67
1652;BME280;823;49.028;8.454;2022-11-20T21:08:11;99683.75;;;9.46;65.11
1652;BME280;823;49.028;8.454;2022-11-20T21:13:22;99696.53;;;9.49;64.45
1652;BME280;823;49.028;8.454;2022-11-20T21:18:24;99688.19;;;9.64;63.94
1652;BME280;823;49.028;8.454;2022-11-20T21:23:25;99687.41;;;9.62;63.77
1652;BME280;823;49.028;8.454;2022-11-20T21:28:25;99700.41;;;9.59;63.73
1652;BME280;823;49.028;8.454;2022-11-20T21:33:25;99699.94;;;9.71;63.56
1652;BME280;823;49.028;8.454;2022-11-20T21:38:26;99701.09;;;9.64;63.60
1652;BME280;823;49.028;8.454;2022-11-20T21:43:26;99701.16;;;9.63;63.67
1652;BME280;823;49.028;8.454;2022-11-20T21:48:28;99696.59;;;9.69;63.48
1652;BME280;823;49.028;8.454;2022-11-20T21:53:29;99701.03;;;9.44;63.92
1652;BME280;823;49.028;8.454;2022-11-20T21:58:30;99694.19;;;9.43;64.33
1652;BME280;823;49.028;8.454;2022-11-20T22:03:31;99689.78;;;9.67;63.56
1652;BME280;823;49.028;8.454;2022-11-20T22:08:33;99681.25;;;9.65;63.94
1652;BME280;823;49.028;8.454;2022-11-20T22:13:34;99677.91;;;9.63;63.40
1652;BME280;823;49.028;8.454;2022-11-20T22:18:54;99692.50;;;9.64;63.24
1652;BME280;823;49.028;8.454;2022-11-20T22:23:55;99682.19;;;9.64;63.36
1652;BME280;823;49.028;8.454;2022-11-20T22:28:57;99681.88;;;9.49;63.31
1652;BME280;823;49.028;8.454;2022-11-20T22:34:00;99682.91;;;9.45;63.22
1652;BME280;823;49.028;8.454;2022-11-20T22:39:01;99677.28;;;9.78;62.15
1652;BME280;823;49.028;8.454;2022-11-20T22:44:04;99673.78;;;9.59;62.60
1652;BME280;823;49.028;8.454;2022-11-20T22:49:06;99670.22;;;9.61;61.92
1652;BME280;823;49.028;8.454;2022-11-20T22:54:11;99668.91;;;9.51;62.46
1652;BME280;823;49.028;8.454;2022-11-20T22:59:12;99662.25;;;9.45;62.90
1652;BME280;823;49.028;8.454;2022-11-20T23:04:13;99656.78;;;9.53;62.78
1652;BME280;823;49.028;8.454;2022-11-20T23:09:14;99663.19;;;9.22;63.68
1652;BME280;823;49.028;8.454;2022-11-20T23:14:14;99667.47;;;9.44;63.23
1652;BME280;823;49.028;8.454;2022-11-20T23:19:15;99662.50;;;9.61;62.64
1652;BME280;823;49.028;8.454;2022-11-20T23:24:15;99671.50;;;9.51;62.90
1652;BME280;823;49.028;8.454;2022-11-20T23:29:16;99672.88;;;9.60;62.28
1652;BME280;823;49.028;8.454;2022-11-20T23:34:16;99669.06;;;9.68;61.82
1652;BME280;823;49.028;8.454;2022-11-20T23:39:16;99665.13;;;9.60;62.04
1652;BME280;823;49.028;8.454;2022-11-20T23:44:17;99665.19;;;9.58;62.11
1652;BME280;823;49.028;8.454;2022-11-20T23:49:17;99656.75;;;9.75;61.49
1652;BME280;823;49.028;8.454;2022-11-20T23:54:17;99660.66;;;9.63;62.03
1652;BME280;823;49.028;8.454;2022-11-20T23:59:18;99650.84;;;9.51;62.35
